createdAt,value
2022-09-24T00:01:35.951Z,12.95
2022-09-24T00:08:19.987Z,18.20
2022-09-24T00:15:03.413Z,12.68
2022-09-24T00:21:45.726Z,15.07
2022-09-24T00:28:28.445Z,12.85
2022-09-24T00:35:11.108Z,11.13
2022-09-24T00:41:53.468Z,14.73
2022-09-24T00:48:37.449Z,11.60
2022-09-24T00:55:22.282Z,11.98
2022-09-24T01:02:04.703Z,14.10
2022-09-24T01:08:47.487Z,13.82
2022-09-24T01:15:42.980Z,14.02
2022-09-24T01:22:57.722Z,14.10
2022-09-24T01:29:53.306Z,14.60
2022-09-24T01:36:36.936Z,13.45
2022-09-24T01:43:24.026Z,14.75
2022-09-24T01:50:09.002Z,16.70
2022-09-24T01:57:14.734Z,14.07
2022-09-24T02:04:00.321Z,16.98
2022-09-24T02:10:56.524Z,13.50
2022-09-24T02:17:43.035Z,15.80
2022-09-24T02:24:49.185Z,14.25
2022-09-24T02:31:37.517Z,16.35
2022-09-24T02:38:19.907Z,14.10
2022-09-24T02:45:04.387Z,15.38
2022-09-24T02:51:46.872Z,15.25
2022-09-24T02:58:30.356Z,13.77
2022-09-24T03:05:12.665Z,15.18
2022-09-24T03:11:55.998Z,13.88
2022-09-24T03:18:38.372Z,14.57
2022-09-24T03:25:21.362Z,13.77
2022-09-24T03:32:03.655Z,13.90
2022-09-24T03:38:48.349Z,15.30
2022-09-24T03:45:30.657Z,11.98
2022-09-24T03:52:13.004Z,11.65
2022-09-24T03:58:55.520Z,10.68
2022-09-24T04:05:38.030Z,13.25
2022-09-24T04:12:20.830Z,12.10
2022-09-24T04:19:03.143Z,17.30
2022-09-24T04:25:45.454Z,14.75
2022-09-24T04:32:27.781Z,16.05
2022-09-24T04:39:11.198Z,12.27
2022-09-24T04:45:58.786Z,12.35
2022-09-24T04:52:41.140Z,11.30
2022-09-24T04:59:23.863Z,13.65
2022-09-24T05:06:06.232Z,15.02
2022-09-24T05:12:48.502Z,14.70
2022-09-24T05:19:30.829Z,12.20
2022-09-24T05:26:45.790Z,13.55
2022-09-24T05:33:28.839Z,14.27
2022-09-24T05:40:30.213Z,14.68
2022-09-24T05:47:13.126Z,13.27
2022-09-24T05:53:55.444Z,14.93
2022-09-24T06:00:38.180Z,15.27
2022-09-24T06:07:21.421Z,12.00
2022-09-24T06:14:04.465Z,15.43
2022-09-24T06:20:46.936Z,12.73
2022-09-24T06:27:29.419Z,12.98
2022-09-24T06:34:11.762Z,10.70
2022-09-24T06:40:59.546Z,10.30
2022-09-24T06:47:41.912Z,14.48
2022-09-24T06:54:24.732Z,12.75
2022-09-24T07:01:07.854Z,13.73
2022-09-24T07:07:50.220Z,10.20
2022-09-24T07:14:32.536Z,15.68
2022-09-24T07:21:14.933Z,12.18
2022-09-24T07:28:02.124Z,11.05
2022-09-24T07:34:45.441Z,10.70
2022-09-24T07:41:27.866Z,12.25
2022-09-24T07:48:11.044Z,10.13
2022-09-24T07:54:54.171Z,13.02
2022-09-24T08:01:37.061Z,9.63
2022-09-24T08:08:20.664Z,9.35
2022-09-24T08:15:03.148Z,8.80
2022-09-24T08:21:48.547Z,15.35
2022-09-24T08:28:31.433Z,9.93
2022-09-24T08:35:15.709Z,10.23
2022-09-24T08:42:01.573Z,9.40
2022-09-24T08:48:49.082Z,13.38
2022-09-24T08:55:39.999Z,8.50
2022-09-24T09:02:43.624Z,10.40
2022-09-24T09:09:30.772Z,10.63
2022-09-24T09:16:22.430Z,10.48
2022-09-24T09:23:34.267Z,6.93
2022-09-24T09:30:19.887Z,6.63
2022-09-24T09:37:28.716Z,7.40
2022-09-24T09:44:19.222Z,8.02
2022-09-24T09:51:04.938Z,9.15
2022-09-24T09:57:48.176Z,8.43
2022-09-24T10:04:41.289Z,6.95
2022-09-24T10:11:23.576Z,7.40
2022-09-24T10:18:06.141Z,5.70
2022-09-24T10:24:50.207Z,4.10
2022-09-24T10:31:36.449Z,4.10
2022-09-24T10:38:22.069Z,3.28
2022-09-24T10:45:10.092Z,3.70
2022-09-24T10:52:02.537Z,6.35
2022-09-24T10:59:22.481Z,3.58
2022-09-24T11:06:44.055Z,5.25
2022-09-24T11:13:29.807Z,4.00
2022-09-24T11:20:35.245Z,4.30
2022-09-24T11:28:04.885Z,3.97
2022-09-24T11:35:17.971Z,3.80
2022-09-24T11:42:16.502Z,3.35
2022-09-24T11:49:01.802Z,3.60
2022-09-24T11:56:13.379Z,5.45
2022-09-24T12:03:07.785Z,4.57
2022-09-24T12:10:24.918Z,5.07
2022-09-24T12:17:14.929Z,3.60
2022-09-24T12:24:07.038Z,5.40
2022-09-24T12:31:16.372Z,5.13
2022-09-24T12:38:18.527Z,4.65
2022-09-24T12:45:03.999Z,4.47
2022-09-24T12:51:47.350Z,6.45
2022-09-24T12:58:37.766Z,5.70
2022-09-24T13:05:22.806Z,5.78
2022-09-24T13:12:20.582Z,6.13
2022-09-24T13:19:05.921Z,5.10
2022-09-24T13:26:20.326Z,8.43
2022-09-24T13:33:09.582Z,6.78
2022-09-24T13:39:58.131Z,6.50
2022-09-24T13:46:44.863Z,6.95
2022-09-24T13:53:34.795Z,5.72
2022-09-24T14:00:21.680Z,6.65
2022-09-24T14:07:04.022Z,5.63
2022-09-24T14:13:46.626Z,7.18
2022-09-24T14:20:35.371Z,8.63
2022-09-24T14:27:21.260Z,4.88
2022-09-24T14:34:04.900Z,5.05
2022-09-24T14:40:55.331Z,6.10
2022-09-24T14:47:38.022Z,6.07
2022-09-24T14:54:30.240Z,6.63
2022-09-24T15:01:18.222Z,6.63
2022-09-24T15:08:19.585Z,7.45
2022-09-24T15:15:05.276Z,9.15
2022-09-24T15:21:49.397Z,6.95
2022-09-24T15:28:31.838Z,5.88
2022-09-24T15:35:15.885Z,5.93
2022-09-24T15:41:58.426Z,5.47
2022-09-24T15:48:40.703Z,5.78
2022-09-24T15:55:24.022Z,5.35
2022-09-24T16:02:20.170Z,6.68
2022-09-24T16:09:03.946Z,4.20
2022-09-24T16:15:46.633Z,4.53
2022-09-24T16:22:29.231Z,5.45
2022-09-24T16:29:12.321Z,7.25
2022-09-24T16:35:54.677Z,6.53
2022-09-24T16:42:36.981Z,6.07
2022-09-24T16:49:19.581Z,6.10
2022-09-24T16:56:08.608Z,8.05
2022-09-24T17:02:50.967Z,8.25
2022-09-24T17:10:11.516Z,9.23
2022-09-24T17:16:53.831Z,8.27
2022-09-24T17:23:36.367Z,10.27
2022-09-24T17:30:18.913Z,9.45
2022-09-24T17:37:01.368Z,11.40
2022-09-24T17:43:44.265Z,10.13
2022-09-24T17:50:26.687Z,8.13
2022-09-24T17:57:09.030Z,9.45
2022-09-24T18:03:56.260Z,12.48
2022-09-24T18:10:38.554Z,11.40
2022-09-24T18:17:20.858Z,11.88
2022-09-24T18:24:03.340Z,12.18
2022-09-24T18:30:45.921Z,12.95
2022-09-24T18:37:28.560Z,11.75
2022-09-24T18:44:11.455Z,12.05
2022-09-24T18:50:53.742Z,15.18
2022-09-24T18:57:37.705Z,13.75
2022-09-24T19:04:19.995Z,15.75
2022-09-24T19:11:13.760Z,15.95
2022-09-24T19:17:56.087Z,15.50
2022-09-24T19:24:38.441Z,22.52
2022-09-24T19:31:24.655Z,21.13
2022-09-24T19:38:07.099Z,19.17
2022-09-24T19:44:51.639Z,19.58
2022-09-24T19:51:35.369Z,22.23
2022-09-24T19:58:17.701Z,22.63
2022-09-24T20:05:00.052Z,21.45
2022-09-24T20:11:42.544Z,25.40
2022-09-24T20:18:25.421Z,24.25
2022-09-24T20:25:08.010Z,39.47
2022-09-24T20:31:52.902Z,26.50
2022-09-24T20:38:35.231Z,29.20
2022-09-24T20:45:17.676Z,22.77
2022-09-24T20:52:05.226Z,21.65
2022-09-24T20:58:52.144Z,20.92
2022-09-24T21:05:34.435Z,22.17
2022-09-24T21:12:16.934Z,21.60
2022-09-24T21:19:00.421Z,22.05
2022-09-24T21:25:54.508Z,22.83
2022-09-24T21:32:38.652Z,24.23
2022-09-24T21:39:23.153Z,24.95
2022-09-24T21:46:06.579Z,28.05
2022-09-24T21:52:50.963Z,24.75
2022-09-24T21:59:51.690Z,24.42
2022-09-24T22:06:34.905Z,24.77
2022-09-24T22:13:17.808Z,26.08
2022-09-24T22:20:00.426Z,28.50
2022-09-24T22:26:42.996Z,24.55
2022-09-24T22:33:44.539Z,25.60
2022-09-24T22:40:26.988Z,23.52
2022-09-24T22:47:09.367Z,22.63
2022-09-24T22:53:53.076Z,26.27
2022-09-24T23:00:36.195Z,23.92
2022-09-24T23:07:18.524Z,24.63
2022-09-24T23:14:03.858Z,27.08
2022-09-24T23:20:46.320Z,24.90
2022-09-24T23:27:28.986Z,24.23
2022-09-24T23:34:13.218Z,23.02
2022-09-24T23:40:56.861Z,21.20
2022-09-24T23:47:39.223Z,22.10
2022-09-24T23:54:21.576Z,19.60
